首页
METAR-TAF:

METAR-TAF

机场 :

Colonel James Jabara Airport

威奇托, 堪薩斯州, 美国

纬度: 37-44-59N, 经度: 097-13-08W, 海拔: 432米

当前天气观测

该预报发布于45分钟前的18:54 UTC
风速8节,风向南转南东
温度 31°C
湿度 55%
气压 1024 hPa
能見度: 16.1公里
少量云层高于4300英尺
多云层高于5500英尺
多云层高于7000英尺

METAR: KAAO 201854Z AUTO 16008KT 10SM FEW043 BKN055 BKN070 31/21 A3024 RMK AO2 SLP226 T03060211

时间: 14:39 (19:39 UTC)


TAF: 丢失

超过4000个机场的气象观测和天气预报(METAR&TAF报告)。

可查询的气象台以黄色和红色小点在地图上表示。

将鼠标移到小点上方,可查看气象台名称。

然后点击查看天气观测和预报。

如需切换地图:点击带黑十字的绿色按钮放大地图;点击带横线的绿色按钮缩小地图;或者点击绿色箭头查看邻近地区的地图。


METAR-TAF: